Time;durP1;ratioP1;P1;durP2;ratioP2;P2;SDS_P1;SDS_P2;PMS_P1;PMS_P2;Temp;Humidity;BMP_temperature;BMP_pressure;BME280_temperature;BME280_humidity;BME280_pressure;Samples;Min_cycle;Max_cycle;Signal;HPM_P1;HPM_P2
2023/12/17 00:02:19;;;;;;;16.40;13.93;;;9.50;99.90;;;;;;4984690;28;20068;-80
2023/12/17 00:04:44;;;;;;;15.60;13.05;;;9.40;99.90;;;;;;5011533;28;20454;-80
2023/12/17 00:07:10;;;;;;;17.23;13.75;;;9.50;99.90;;;;;;5025329;28;20650;-80
2023/12/17 00:09:35;;;;;;;17.98;12.75;;;9.50;99.90;;;;;;4994566;28;20030;-80
2023/12/17 00:12:01;;;;;;;16.77;12.90;;;9.40;99.90;;;;;;4994621;28;20045;-81
2023/12/17 00:14:26;;;;;;;17.25;13.43;;;9.50;99.90;;;;;;5009583;28;20072;-80
2023/12/17 00:16:52;;;;;;;17.23;12.02;;;9.50;99.90;;;;;;4997610;28;20033;-80
2023/12/17 00:19:17;;;;;;;18.52;14.10;;;9.40;99.90;;;;;;5007861;28;20120;-81
2023/12/17 00:21:43;;;;;;;15.82;11.90;;;9.50;99.90;;;;;;5019633;28;20120;-81
2023/12/17 00:24:08;;;;;;;17.40;12.63;;;9.40;99.90;;;;;;4985343;28;20041;-80
2023/12/17 00:26:34;;;;;;;16.73;14.38;;;9.40;99.90;;;;;;4994314;28;20042;-80
2023/12/17 00:28:59;;;;;;;18.08;13.68;;;9.40;99.90;;;;;;4982767;28;20041;-80
2023/12/17 00:31:25;;;;;;;18.55;15.80;;;9.40;99.90;;;;;;5010171;28;20033;-80
2023/12/17 00:33:51;;;;;;;19.67;16.23;;;9.40;99.90;;;;;;4998682;28;20052;-81
2023/12/17 00:36:16;;;;;;;18.73;14.85;;;9.40;99.90;;;;;;4978194;28;20046;-80
2023/12/17 00:38:42;;;;;;;24.17;17.52;;;9.50;99.90;;;;;;4978224;28;20165;-81
2023/12/17 00:41:07;;;;;;;17.77;15.90;;;9.50;99.90;;;;;;4979410;28;20038;-81
2023/12/17 00:43:35;;;;;;;20.02;17.05;;;9.50;99.90;;;;;;4991344;28;20041;-81
2023/12/17 00:46:00;;;;;;;18.38;16.13;;;9.50;99.90;;;;;;5013938;28;20080;-81
2023/12/17 00:48:26;;;;;;;20.80;16.60;;;9.50;99.90;;;;;;5012056;28;20427;-81
2023/12/17 00:50:51;;;;;;;20.98;16.52;;;9.50;99.90;;;;;;4978037;28;20436;-80
2023/12/17 00:53:17;;;;;;;21.63;16.50;;;9.50;99.90;;;;;;4994656;28;20488;-80
2023/12/17 00:55:42;;;;;;;16.25;14.18;;;9.50;99.90;;;;;;4977912;28;20068;-82
2023/12/17 00:58:08;;;;;;;18.70;14.98;;;9.50;99.90;;;;;;5003251;28;20034;-80
2023/12/17 01:00:33;;;;;;;17.52;14.95;;;9.50;99.90;;;;;;5010434;28;20041;-80
2023/12/17 01:02:59;;;;;;;20.58;16.20;;;9.50;99.90;;;;;;4981092;28;20132;-80
2023/12/17 01:05:25;;;;;;;21.17;16.88;;;9.50;99.90;;;;;;5013692;28;20069;-80
2023/12/17 01:07:50;;;;;;;18.73;15.65;;;9.50;99.90;;;;;;4997339;28;20056;-80
2023/12/17 01:10:16;;;;;;;17.02;14.30;;;9.50;99.90;;;;;;4997085;28;20042;-81
2023/12/17 01:12:42;;;;;;;18.13;15.75;;;9.50;99.90;;;;;;5002216;28;20045;-80
2023/12/17 01:15:08;;;;;;;20.02;16.30;;;9.50;99.90;;;;;;5008205;28;20076;-80
2023/12/17 01:17:33;;;;;;;17.63;15.05;;;9.50;99.90;;;;;;5009788;28;20076;-81
2023/12/17 01:19:59;;;;;;;19.80;16.75;;;9.50;99.90;;;;;;5001001;28;20132;-80
2023/12/17 01:22:24;;;;;;;20.63;15.85;;;9.50;99.90;;;;;;4996475;28;20034;-80
2023/12/17 01:24:54;;;;;;;16.75;15.00;;;9.50;99.90;;;;;;5009106;28;20042;-80
2023/12/17 01:27:21;;;;;;;22.80;16.58;;;9.50;99.90;;;;;;5016905;28;20044;-80
2023/12/17 01:29:46;;;;;;;20.58;16.30;;;9.50;99.90;;;;;;5009257;28;20037;-80
2023/12/17 01:32:12;;;;;;;20.25;16.15;;;9.50;99.90;;;;;;5029835;28;20144;-80
2023/12/17 01:34:37;;;;;;;20.85;16.95;;;9.50;99.90;;;;;;5007025;28;20042;-80
2023/12/17 01:37:03;;;;;;;21.33;17.40;;;9.50;99.90;;;;;;5004962;28;20029;-80
2023/12/17 01:39:28;;;;;;;19.50;17.33;;;9.50;99.90;;;;;;5030631;28;20029;-80
2023/12/17 01:41:54;;;;;;;19.42;17.05;;;9.50;99.90;;;;;;5005932;28;20045;-80
2023/12/17 01:44:20;;;;;;;19.75;17.52;;;9.50;99.90;;;;;;4984713;28;20165;-80
2023/12/17 01:46:45;;;;;;;26.95;19.48;;;9.50;99.90;;;;;;4980887;28;20409;-80
2023/12/17 01:49:11;;;;;;;19.88;17.13;;;9.50;99.90;;;;;;4980851;28;20575;-80
2023/12/17 01:51:38;;;;;;;24.15;19.52;;;9.50;99.90;;;;;;4999986;28;20045;-79
2023/12/17 01:54:04;;;;;;;21.77;17.90;;;9.50;99.90;;;;;;5007808;28;20120;-80
2023/12/17 01:56:29;;;;;;;23.70;17.98;;;9.50;99.90;;;;;;5016550;28;20144;-80
2023/12/17 01:58:56;;;;;;;24.20;18.33;;;9.50;99.90;;;;;;5016829;28;20079;-80
2023/12/17 02:01:22;;;;;;;20.88;17.55;;;9.50;99.90;;;;;;5016129;28;20034;-80
2023/12/17 02:03:48;;;;;;;19.83;17.73;;;9.50;99.90;;;;;;5005284;28;20092;-80
2023/12/17 02:06:13;;;;;;;24.08;18.23;;;9.50;99.90;;;;;;5012991;28;20072;-80
2023/12/17 02:08:40;;;;;;;20.42;16.63;;;9.50;99.90;;;;;;5032753;28;20045;-81
2023/12/17 02:11:05;;;;;;;21.75;19.40;;;9.50;99.90;;;;;;5015968;28;20033;-80
2023/12/17 02:13:31;;;;;;;23.23;18.92;;;9.50;99.90;;;;;;5018583;28;20128;-80
2023/12/17 02:15:56;;;;;;;22.42;20.13;;;9.50;99.90;;;;;;4980269;28;20042;-80
2023/12/17 02:18:22;;;;;;;24.13;21.10;;;9.50;99.90;;;;;;4996441;28;20500;-80
2023/12/17 02:20:47;;;;;;;23.60;20.00;;;9.40;99.90;;;;;;4984840;28;20416;-81
2023/12/17 02:23:13;;;;;;;24.67;20.58;;;9.40;99.90;;;;;;5007417;28;20392;-81
2023/12/17 02:25:39;;;;;;;22.73;20.38;;;9.40;99.90;;;;;;4980289;28;20396;-80
2023/12/17 02:28:04;;;;;;;22.83;20.42;;;9.40;99.90;;;;;;4995571;28;20073;-80
2023/12/17 02:30:30;;;;;;;25.15;21.00;;;9.40;99.90;;;;;;4980212;28;20510;-80
2023/12/17 02:32:55;;;;;;;27.17;21.25;;;9.40;99.90;;;;;;4979780;28;20030;-80
2023/12/17 02:35:25;;;;;;;25.77;20.55;;;9.40;99.90;;;;;;4993666;28;20510;-80
2023/12/17 02:37:51;;;;;;;23.35;20.30;;;9.30;99.90;;;;;;5022848;28;20079;-80
2023/12/17 02:40:16;;;;;;;23.35;20.63;;;9.30;99.90;;;;;;5015619;28;20065;-80
2023/12/17 02:42:42;;;;;;;23.60;20.27;;;9.30;99.90;;;;;;5004618;28;20507;-81
2023/12/17 02:45:09;;;;;;;25.27;19.77;;;9.30;99.90;;;;;;4997181;28;20037;-80
2023/12/17 02:47:35;;;;;;;23.65;18.88;;;9.40;99.90;;;;;;4979614;28;20038;-81
2023/12/17 02:50:00;;;;;;;24.15;20.83;;;9.40;99.90;;;;;;4979596;28;20136;-81
2023/12/17 02:52:26;;;;;;;25.08;21.10;;;9.40;99.90;;;;;;5010032;28;20509;-81
2023/12/17 02:54:52;;;;;;;26.98;21.15;;;9.40;99.90;;;;;;4999389;28;20038;-81
2023/12/17 02:57:17;;;;;;;23.50;20.77;;;9.40;99.90;;;;;;4998633;28;20060;-80
2023/12/17 02:59:43;;;;;;;25.20;19.95;;;9.40;99.90;;;;;;5029728;28;20040;-80
2023/12/17 03:02:08;;;;;;;22.77;19.63;;;9.40;99.90;;;;;;5004838;28;20415;-81
2023/12/17 03:04:34;;;;;;;21.45;19.17;;;9.40;99.90;;;;;;4997417;28;20029;-81
2023/12/17 03:06:59;;;;;;;24.10;20.05;;;9.40;99.90;;;;;;5014845;28;20091;-81
2023/12/17 03:09:25;;;;;;;24.45;21.05;;;9.40;99.90;;;;;;5015180;28;20131;-79
2023/12/17 03:11:51;;;;;;;23.42;20.48;;;9.40;99.90;;;;;;5006303;28;20080;-81
2023/12/17 03:14:16;;;;;;;26.92;21.58;;;9.40;99.90;;;;;;4997746;28;20084;-81
2023/12/17 03:16:42;;;;;;;26.00;20.48;;;9.40;99.90;;;;;;4998683;28;20033;-81
2023/12/17 03:19:08;;;;;;;21.33;19.13;;;9.40;99.90;;;;;;4998558;28;20585;-81
2023/12/17 03:21:33;;;;;;;27.98;22.13;;;9.40;99.90;;;;;;5014876;28;20036;-80
2023/12/17 03:24:00;;;;;;;26.30;20.33;;;9.40;99.90;;;;;;5015848;28;20044;-81
2023/12/17 03:26:25;;;;;;;22.83;19.75;;;9.40;99.90;;;;;;4995242;28;20046;-80
2023/12/17 03:28:51;;;;;;;22.27;18.75;;;9.40;99.90;;;;;;4980409;28;20079;-81
2023/12/17 03:31:17;;;;;;;23.90;20.30;;;9.40;99.90;;;;;;4994068;28;20076;-80
2023/12/17 03:33:43;;;;;;;20.92;18.73;;;9.40;99.90;;;;;;5024107;28;20040;-81
2023/12/17 03:36:15;;;;;;;21.05;18.80;;;9.40;99.90;;;;;;5000389;28;20041;-81
2023/12/17 03:38:43;;;;;;;23.13;19.85;;;9.40;99.90;;;;;;5011434;28;20045;-81
2023/12/17 03:41:28;;;;;;;21.55;19.42;;;9.40;99.90;;;;;;5008256;28;20037;-80
2023/12/17 03:43:56;;;;;;;20.95;18.77;;;9.40;99.90;;;;;;4978192;28;20053;-81
2023/12/17 03:46:23;;;;;;;24.55;20.65;;;9.40;99.90;;;;;;5010366;28;20768;-81
2023/12/17 03:48:49;;;;;;;21.95;19.70;;;9.40;99.90;;;;;;5010823;28;20435;-80
2023/12/17 03:51:15;;;;;;;22.92;20.10;;;9.40;99.90;;;;;;5027580;28;20033;-80
2023/12/17 03:53:41;;;;;;;23.23;20.67;;;9.40;99.90;;;;;;4997557;28;20033;-81
2023/12/17 03:56:08;;;;;;;21.92;19.77;;;9.40;99.90;;;;;;4996442;28;20033;-81
2023/12/17 03:58:34;;;;;;;23.67;21.08;;;9.40;99.90;;;;;;4997998;28;20037;-81
2023/12/17 04:01:01;;;;;;;21.52;19.25;;;9.40;99.90;;;;;;4991239;28;20099;-81
2023/12/17 04:03:26;;;;;;;21.95;19.65;;;9.40;99.90;;;;;;5022194;28;20048;-81
2023/12/17 04:05:52;;;;;;;21.92;19.58;;;9.40;99.90;;;;;;4988357;28;20041;-81
2023/12/17 04:08:17;;;;;;;21.88;19.60;;;9.40;99.90;;;;;;4994701;28;20084;-81
2023/12/17 04:10:43;;;;;;;18.67;16.88;;;9.40;99.90;;;;;;4978623;28;20038;-81
2023/12/17 04:13:08;;;;;;;20.58;18.70;;;9.40;99.90;;;;;;4994529;28;20492;-81
2023/12/17 04:15:34;;;;;;;21.90;19.75;;;9.40;99.90;;;;;;4982521;28;20395;-80
2023/12/17 04:17:59;;;;;;;22.63;20.33;;;9.40;99.90;;;;;;5014032;28;20451;-80
2023/12/17 04:20:25;;;;;;;21.52;19.30;;;9.40;99.90;;;;;;5014066;28;20377;-81
2023/12/17 04:22:50;;;;;;;21.13;19.02;;;9.40;99.90;;;;;;4978661;28;20516;-81
2023/12/17 04:25:16;;;;;;;20.83;18.48;;;9.40;99.90;;;;;;5003841;28;20150;-81
2023/12/17 04:27:42;;;;;;;19.50;17.55;;;9.40;99.90;;;;;;5014075;28;20048;-81
2023/12/17 04:30:08;;;;;;;21.10;18.98;;;9.40;99.90;;;;;;4998763;28;20407;-81
2023/12/17 04:32:33;;;;;;;21.02;19.02;;;9.40;99.90;;;;;;5013890;28;20034;-81
2023/12/17 04:34:59;;;;;;;20.40;18.30;;;9.40;99.90;;;;;;5002493;28;20200;-81
2023/12/17 04:37:25;;;;;;;20.67;18.60;;;9.40;99.90;;;;;;4978578;28;20490;-80
2023/12/17 04:39:50;;;;;;;19.25;17.45;;;9.40;99.90;;;;;;4999912;28;20562;-81
2023/12/17 04:42:16;;;;;;;22.73;20.35;;;9.40;99.90;;;;;;5030428;28;20045;-80
2023/12/17 04:44:42;;;;;;;22.17;19.95;;;9.40;99.90;;;;;;5006988;28;20420;-80
2023/12/17 04:47:08;;;;;;;21.08;19.08;;;9.40;99.90;;;;;;4992278;28;20034;-81
2023/12/17 04:49:33;;;;;;;22.90;20.58;;;9.40;99.90;;;;;;5030189;28;20038;-81
2023/12/17 04:51:59;;;;;;;19.38;17.45;;;9.40;99.90;;;;;;5017848;28;20068;-81
2023/12/17 04:54:25;;;;;;;18.05;16.42;;;9.40;99.90;;;;;;5032094;28;20046;-80
2023/12/17 04:56:50;;;;;;;21.23;19.23;;;9.40;99.90;;;;;;4995736;28;20049;-80
2023/12/17 04:59:16;;;;;;;22.67;20.65;;;9.40;99.90;;;;;;5015732;28;20037;-81
2023/12/17 05:01:41;;;;;;;22.25;20.00;;;9.40;99.90;;;;;;4997844;28;20073;-80
2023/12/17 05:04:07;;;;;;;20.48;18.65;;;9.40;99.90;;;;;;4981568;28;20045;-80
2023/12/17 05:06:33;;;;;;;20.83;18.77;;;9.30;99.90;;;;;;4998151;28;20042;-80
2023/12/17 05:08:58;;;;;;;22.15;20.08;;;9.40;99.90;;;;;;4997765;28;20045;-80
2023/12/17 05:11:24;;;;;;;23.50;21.40;;;9.40;99.90;;;;;;4991520;28;20044;-81
2023/12/17 05:13:49;;;;;;;24.15;21.75;;;9.30;99.90;;;;;;5016112;28;20095;-80
2023/12/17 05:16:15;;;;;;;22.65;20.55;;;9.30;99.90;;;;;;5017262;28;20037;-80
2023/12/17 05:18:40;;;;;;;24.77;22.10;;;9.30;99.90;;;;;;5017276;28;20124;-80
2023/12/17 05:21:06;;;;;;;20.52;18.38;;;9.30;99.90;;;;;;5006671;28;20042;-81
2023/12/17 05:23:32;;;;;;;21.20;19.05;;;9.30;99.90;;;;;;4981359;28;20046;-80
2023/12/17 05:25:58;;;;;;;19.40;17.33;;;9.20;99.90;;;;;;4996805;28;20045;-81
2023/12/17 05:28:24;;;;;;;18.48;16.67;;;9.30;99.90;;;;;;5013276;28;20047;-81
2023/12/17 05:30:49;;;;;;;18.42;16.80;;;9.20;99.90;;;;;;5011707;28;20485;-80
2023/12/17 05:33:15;;;;;;;19.65;17.75;;;9.20;99.90;;;;;;4997132;28;20073;-80
2023/12/17 05:35:42;;;;;;;16.95;15.30;;;9.20;99.90;;;;;;5015508;28;20041;-81
2023/12/17 05:38:07;;;;;;;17.77;16.08;;;9.20;99.90;;;;;;5016952;28;20413;-81
2023/12/17 05:40:33;;;;;;;16.83;15.32;;;9.20;99.90;;;;;;5016145;28;20443;-81
2023/12/17 05:42:59;;;;;;;17.58;15.85;;;9.20;99.90;;;;;;5008092;28;20049;-81
2023/12/17 05:45:25;;;;;;;15.38;13.98;;;9.20;99.90;;;;;;5033069;28;20044;-81
2023/12/17 05:47:50;;;;;;;17.25;15.38;;;9.10;99.90;;;;;;5016804;28;20041;-81
2023/12/17 05:50:16;;;;;;;16.50;14.20;;;9.10;99.90;;;;;;5006884;28;20037;-82
2023/12/17 05:52:41;;;;;;;15.38;13.43;;;9.20;99.90;;;;;;5007185;28;20290;-81
2023/12/17 05:55:07;;;;;;;16.55;13.65;;;9.10;99.90;;;;;;5032997;28;20037;-80
2023/12/17 05:57:33;;;;;;;16.45;14.40;;;9.10;99.90;;;;;;5013576;28;20033;-80
2023/12/17 05:59:59;;;;;;;15.05;13.40;;;9.10;99.90;;;;;;5015928;28;20116;-81
2023/12/17 06:02:24;;;;;;;15.63;14.23;;;9.10;99.90;;;;;;5018807;28;20538;-81
2023/12/17 06:04:50;;;;;;;18.63;16.73;;;9.10;99.90;;;;;;4997928;28;20037;-81
2023/12/17 06:07:17;;;;;;;17.65;15.88;;;9.10;99.90;;;;;;5000465;28;20048;-81
2023/12/17 06:09:42;;;;;;;19.15;16.15;;;9.10;99.90;;;;;;5000208;28;20037;-81
2023/12/17 06:12:08;;;;;;;18.45;16.50;;;9.10;99.90;;;;;;5014048;28;20038;-80
2023/12/17 06:14:34;;;;;;;20.55;18.60;;;9.10;99.90;;;;;;5011811;28;20049;-79
2023/12/17 06:17:00;;;;;;;18.23;16.45;;;9.10;99.90;;;;;;4992252;28;20514;-86
2023/12/17 06:19:25;;;;;;;18.95;17.10;;;9.10;99.90;;;;;;5013587;28;20033;-85
2023/12/17 06:21:51;;;;;;;19.92;17.95;;;9.10;99.90;;;;;;5014919;28;20065;-83
2023/12/17 06:24:16;;;;;;;20.65;18.45;;;9.10;99.90;;;;;;5017318;28;20048;-83
2023/12/17 06:26:42;;;;;;;19.40;17.60;;;9.10;99.90;;;;;;4996566;28;20129;-84
2023/12/17 06:29:13;;;;;;;19.73;17.75;;;9.10;99.90;;;;;;5005936;28;20049;-82
2023/12/17 06:31:40;;;;;;;21.60;19.48;;;9.00;99.90;;;;;;4998695;28;20087;-81
2023/12/17 06:34:06;;;;;;;23.60;21.27;;;9.10;99.90;;;;;;4992875;28;20435;-82
2023/12/17 06:36:31;;;;;;;21.80;19.70;;;9.10;99.90;;;;;;5010410;28;20099;-82
2023/12/17 06:38:57;;;;;;;22.75;20.20;;;9.10;99.90;;;;;;5001410;28;20034;-81
2023/12/17 06:41:22;;;;;;;21.48;19.40;;;9.10;99.90;;;;;;4991207;28;20053;-82
2023/12/17 06:43:48;;;;;;;22.60;20.02;;;9.10;99.90;;;;;;4978808;28;20141;-82
2023/12/17 06:46:17;;;;;;;24.05;21.58;;;9.00;99.90;;;;;;4988974;28;20123;-82
2023/12/17 06:48:43;;;;;;;29.42;20.08;;;9.10;99.90;;;;;;4978693;28;20188;-82
2023/12/17 06:51:09;;;;;;;22.38;20.08;;;9.00;99.90;;;;;;4979468;28;20041;-82
2023/12/17 06:53:34;;;;;;;22.20;19.95;;;9.00;99.90;;;;;;4987884;28;20049;-82
2023/12/17 06:56:00;;;;;;;22.55;20.30;;;9.00;99.90;;;;;;4979306;28;20067;-82
2023/12/17 06:58:26;;;;;;;24.05;21.45;;;9.00;99.90;;;;;;4981580;28;20060;-83
2023/12/17 07:00:51;;;;;;;21.55;19.33;;;9.00;99.90;;;;;;4985034;28;20068;-88
2023/12/17 07:03:18;;;;;;;21.75;19.50;;;9.00;99.90;;;;;;4980030;28;20514;-83
2023/12/17 07:05:45;;;;;;;21.75;19.65;;;9.00;99.90;;;;;;4984370;28;20500;-81
2023/12/17 07:08:10;;;;;;;21.63;19.40;;;9.00;99.90;;;;;;4991531;28;20338;-82
2023/12/17 07:10:36;;;;;;;23.27;20.58;;;9.00;99.90;;;;;;4996970;28;20404;-85
2023/12/17 07:13:03;;;;;;;22.75;20.38;;;9.00;99.90;;;;;;4980955;28;20052;-84
2023/12/17 07:15:29;;;;;;;22.73;20.63;;;9.00;99.90;;;;;;4986659;28;20388;-84
2023/12/17 07:17:55;;;;;;;25.40;22.95;;;9.00;99.90;;;;;;5024451;28;20033;-84
2023/12/17 07:20:21;;;;;;;25.55;23.13;;;9.00;99.90;;;;;;5011299;28;20117;-84
2023/12/17 07:22:48;;;;;;;25.30;22.73;;;9.00;99.90;;;;;;4998468;28;20068;-83
2023/12/17 07:25:13;;;;;;;25.60;23.17;;;9.00;99.90;;;;;;4986684;28;20057;-82
2023/12/17 07:27:39;;;;;;;27.95;25.17;;;9.00;99.90;;;;;;4976395;28;20041;-82
2023/12/17 07:30:05;;;;;;;27.23;24.67;;;9.00;99.90;;;;;;4982834;28;20488;-84
2023/12/17 07:32:58;;;;;;;26.33;23.90;;;9.00;99.90;;;;;;4982981;28;20216;-86
2023/12/17 07:35:24;;;;;;;32.00;28.98;;;9.00;99.90;;;;;;5002683;28;20480;-85
2023/12/17 07:37:50;;;;;;;30.20;27.58;;;9.00;99.90;;;;;;4995342;28;20035;-86
2023/12/17 07:40:16;;;;;;;32.22;29.20;;;9.00;99.90;;;;;;4986241;28;20553;-86
2023/12/17 07:43:09;;;;;;;33.70;30.33;;;9.00;99.90;;;;;;4988147;28;20135;-86
2023/12/17 07:45:53;;;;;;;34.15;30.88;;;8.90;99.90;;;;;;5006469;28;20071;-86
2023/12/17 07:48:19;;;;;;;36.50;32.95;;;8.90;99.90;;;;;;5001937;28;20053;-86
2023/12/17 07:50:44;;;;;;;32.65;29.35;;;8.90;99.90;;;;;;4982958;28;20033;-84
2023/12/17 07:53:10;;;;;;;35.13;31.63;;;8.90;99.90;;;;;;5001625;28;20045;-86
2023/12/17 07:55:35;;;;;;;34.20;30.77;;;8.90;99.90;;;;;;5002704;28;20149;-85
2023/12/17 07:58:01;;;;;;;29.23;26.33;;;8.90;99.90;;;;;;4984227;28;20034;-86
2023/12/17 08:00:27;;;;;;;30.80;27.67;;;8.90;99.90;;;;;;4984503;28;20163;-86
2023/12/17 08:02:53;;;;;;;31.88;28.55;;;8.90;99.90;;;;;;4990032;28;20049;-86
2023/12/17 08:05:19;;;;;;;26.08;23.30;;;8.80;99.90;;;;;;5001881;28;20041;-85
2023/12/17 08:07:44;;;;;;;26.75;23.83;;;9.00;99.90;;;;;;5002518;28;20099;-86
2023/12/17 08:10:10;;;;;;;26.58;23.77;;;9.00;99.90;;;;;;4987179;28;20573;-85
2023/12/17 08:12:35;;;;;;;32.72;26.33;;;9.00;99.90;;;;;;4985686;28;20542;-86
2023/12/17 08:15:01;;;;;;;28.85;25.33;;;9.00;99.90;;;;;;4984783;28;20044;-86
2023/12/17 08:17:30;;;;;;;26.80;24.00;;;9.00;99.90;;;;;;4986197;28;20057;-85
2023/12/17 08:19:55;;;;;;;26.95;24.15;;;9.00;99.90;;;;;;5002599;28;20102;-86
2023/12/17 08:22:21;;;;;;;27.35;24.55;;;9.00;99.90;;;;;;5003998;28;20443;-86
2023/12/17 08:24:47;;;;;;;27.85;24.50;;;9.00;99.90;;;;;;5002956;28;20106;-86
2023/12/17 08:27:13;;;;;;;26.63;22.08;;;9.10;99.90;;;;;;5010195;28;20187;-85
2023/12/17 08:29:39;;;;;;;28.75;22.77;;;9.00;99.90;;;;;;5001418;28;20045;-85
2023/12/17 08:32:05;;;;;;;27.67;22.33;;;9.10;99.90;;;;;;5006825;28;20052;-86
2023/12/17 08:34:31;;;;;;;26.50;23.10;;;9.10;99.90;;;;;;4991768;28;20486;-85
2023/12/17 08:36:58;;;;;;;28.58;23.10;;;9.10;99.90;;;;;;4987915;28;20450;-84
2023/12/17 08:39:23;;;;;;;31.10;25.45;;;9.10;99.90;;;;;;5003760;28;20480;-86
2023/12/17 08:41:53;;;;;;;30.88;24.60;;;9.10;99.90;;;;;;5010320;28;20045;-85
2023/12/17 08:44:23;;;;;;;26.95;24.05;;;9.20;99.90;;;;;;4990336;28;20041;-85
2023/12/17 08:46:52;;;;;;;30.42;26.75;;;9.10;99.90;;;;;;4987408;28;20057;-86
2023/12/17 08:49:21;;;;;;;32.65;26.30;;;9.10;99.90;;;;;;4992295;28;20042;-86
2023/12/17 08:51:50;;;;;;;28.30;24.58;;;9.10;99.90;;;;;;4989398;28;20392;-85
2023/12/17 08:54:16;;;;;;;29.30;25.42;;;9.20;99.90;;;;;;4987776;28;21453;-86
2023/12/17 08:56:42;;;;;;;30.13;26.05;;;9.20;99.90;;;;;;4991429;28;20045;-85
2023/12/17 08:59:08;;;;;;;27.60;24.55;;;9.20;99.90;;;;;;4988821;28;20041;-86
2023/12/17 09:01:34;;;;;;;30.50;26.30;;;9.20;99.90;;;;;;5003627;28;20049;-86
2023/12/17 09:04:03;;;;;;;31.23;25.42;;;9.20;99.90;;;;;;4987763;28;20067;-86
2023/12/17 09:06:28;;;;;;;30.48;25.77;;;9.10;99.90;;;;;;5008979;28;20164;-86
2023/12/17 09:08:57;;;;;;;32.53;28.73;;;9.20;99.90;;;;;;4991400;28;20132;-85
2023/12/17 09:11:23;;;;;;;35.80;31.02;;;9.20;99.90;;;;;;4989005;28;20052;-85
2023/12/17 09:13:48;;;;;;;37.95;32.60;;;9.20;99.90;;;;;;4975738;28;20503;-85
2023/12/17 09:16:14;;;;;;;38.08;32.92;;;9.20;99.90;;;;;;5001676;28;20747;-87
2023/12/17 09:18:41;;;;;;;40.10;33.88;;;9.20;99.90;;;;;;4986029;28;20044;-86
2023/12/17 09:21:07;;;;;;;42.80;34.22;;;9.30;99.90;;;;;;5004648;28;20179;-85
2023/12/17 09:23:32;;;;;;;40.70;33.97;;;9.20;99.90;;;;;;5005139;28;20041;-86
2023/12/17 09:26:00;;;;;;;39.83;33.42;;;9.20;99.90;;;;;;4989652;28;20099;-85
2023/12/17 09:28:26;;;;;;;45.22;35.75;;;9.20;99.90;;;;;;4986180;28;20092;-86
2023/12/17 09:30:51;;;;;;;40.03;33.33;;;9.30;99.90;;;;;;4990427;28;20049;-85
2023/12/17 09:33:17;;;;;;;41.13;33.10;;;9.20;99.90;;;;;;5001885;28;20550;-86
2023/12/17 09:35:43;;;;;;;37.70;33.40;;;9.20;99.90;;;;;;4986124;28;20037;-85
2023/12/17 09:38:10;;;;;;;37.63;32.03;;;9.30;99.90;;;;;;4988548;28;20052;-86
2023/12/17 09:40:36;;;;;;;39.53;32.88;;;9.20;99.90;;;;;;4987530;28;20037;-86
2023/12/17 09:43:04;;;;;;;37.20;32.30;;;9.40;99.90;;;;;;5005635;28;20168;-86
2023/12/17 09:45:29;;;;;;;39.83;33.47;;;9.30;99.90;;;;;;4988023;28;20128;-85
2023/12/17 09:47:55;;;;;;;41.50;34.17;;;9.30;99.90;;;;;;4995386;28;20128;-85
2023/12/17 09:50:21;;;;;;;37.15;32.25;;;9.30;99.90;;;;;;4988563;28;20569;-86
2023/12/17 09:52:47;;;;;;;36.65;32.50;;;9.30;99.90;;;;;;5002887;28;20029;-85
2023/12/17 09:55:15;;;;;;;35.00;30.30;;;9.30;99.90;;;;;;4989893;28;20381;-87
2023/12/17 09:57:44;;;;;;;35.42;29.90;;;9.30;99.90;;;;;;5001897;28;20034;-86
2023/12/17 10:00:12;;;;;;;32.80;29.15;;;9.40;99.90;;;;;;4995471;28;20038;-86
2023/12/17 10:02:41;;;;;;;34.28;29.63;;;9.30;99.90;;;;;;4987074;28;20030;-86
2023/12/17 10:05:07;;;;;;;33.75;27.48;;;9.30;99.90;;;;;;4988047;28;20079;-87
2023/12/17 10:07:36;;;;;;;31.25;26.27;;;9.30;99.90;;;;;;4995782;28;20033;-86
2023/12/17 10:10:03;;;;;;;29.98;26.75;;;9.30;99.90;;;;;;4984935;28;20134;-86
2023/12/17 10:12:32;;;;;;;29.42;26.23;;;9.30;99.90;;;;;;4983411;28;20068;-85
2023/12/17 10:14:58;;;;;;;29.63;26.50;;;9.40;99.90;;;;;;5004777;28;20025;-86
2023/12/17 10:17:26;;;;;;;28.30;25.40;;;9.30;99.90;;;;;;4989147;28;20155;-86
2023/12/17 10:19:55;;;;;;;28.75;25.73;;;9.40;99.90;;;;;;4990343;28;20050;-86
2023/12/17 10:22:41;;;;;;;27.42;24.52;;;9.40;99.90;;;;;;4987956;28;20423;-86
2023/12/17 10:25:21;;;;;;;27.48;24.65;;;9.50;99.90;;;;;;4988339;28;20045;-86
2023/12/17 10:27:47;;;;;;;26.15;23.45;;;9.40;99.90;;;;;;4988394;28;20037;-86
2023/12/17 10:30:13;;;;;;;27.38;24.58;;;9.40;99.90;;;;;;4987923;28;20128;-87
2023/12/17 10:32:43;;;;;;;27.80;25.00;;;9.40;99.90;;;;;;4986640;28;20041;-85
2023/12/17 10:35:11;;;;;;;26.80;24.10;;;9.40;99.90;;;;;;4985736;28;20041;-86
2023/12/17 10:37:37;;;;;;;26.52;23.98;;;9.30;99.90;;;;;;5000767;28;20188;-86
2023/12/17 10:40:05;;;;;;;25.63;23.15;;;9.40;99.90;;;;;;4988844;28;20056;-87
2023/12/17 10:42:39;;;;;;;26.88;24.27;;;9.40;99.90;;;;;;4981935;28;20144;-84
2023/12/17 10:45:07;;;;;;;25.17;22.73;;;9.40;99.90;;;;;;4997643;28;20041;-85
2023/12/17 10:47:38;;;;;;;24.55;22.15;;;9.40;99.90;;;;;;4982234;28;20304;-85
2023/12/17 10:50:04;;;;;;;23.63;21.33;;;9.40;99.90;;;;;;4996640;28;20102;-82
2023/12/17 10:52:32;;;;;;;25.58;22.88;;;9.40;99.90;;;;;;4987761;28;20048;-85
2023/12/17 10:54:58;;;;;;;25.90;23.58;;;9.40;99.90;;;;;;5019915;28;20033;-85
2023/12/17 10:57:27;;;;;;;26.88;24.17;;;9.40;99.90;;;;;;5009869;28;20033;-85
2023/12/17 10:59:54;;;;;;;27.25;24.70;;;9.40;99.90;;;;;;4998618;28;20391;-85
2023/12/17 11:02:23;;;;;;;27.38;24.67;;;9.50;99.90;;;;;;4998099;28;20053;-83
2023/12/17 11:04:49;;;;;;;28.10;25.40;;;9.50;99.90;;;;;;5014777;28;20503;-83
2023/12/17 11:07:21;;;;;;;27.65;25.02;;;9.50;99.90;;;;;;4998588;28;20044;-84
2023/12/17 11:09:47;;;;;;;27.40;24.70;;;9.50;99.90;;;;;;4996366;28;20092;-85
2023/12/17 11:12:15;;;;;;;27.23;24.45;;;9.50;99.90;;;;;;5009327;28;20037;-84
2023/12/17 11:14:42;;;;;;;28.25;25.50;;;9.50;99.90;;;;;;5020929;28;20052;-85
2023/12/17 11:17:12;;;;;;;30.17;27.20;;;9.50;99.90;;;;;;4980549;28;20044;-85
2023/12/17 11:19:59;;;;;;;29.45;26.50;;;9.50;99.90;;;;;;4986339;28;20049;-85
2023/12/17 11:22:25;;;;;;;33.65;28.83;;;9.50;99.90;;;;;;5005331;28;20387;-85
2023/12/17 11:25:00;;;;;;;33.75;29.90;;;9.50;99.90;;;;;;4989650;28;20042;-84
2023/12/17 11:27:26;;;;;;;33.40;29.92;;;9.50;99.90;;;;;;4996572;28;20046;-84
2023/12/17 11:29:55;;;;;;;36.47;32.30;;;9.50;99.90;;;;;;5007637;28;20483;-82
2023/12/17 11:32:22;;;;;;;35.38;31.60;;;9.50;99.90;;;;;;5031224;28;20042;-84
2023/12/17 11:34:50;;;;;;;34.58;30.88;;;9.50;99.90;;;;;;4997461;28;20038;-83
2023/12/17 11:37:20;;;;;;;37.97;31.38;;;9.40;99.90;;;;;;5014449;28;20034;-84
2023/12/17 11:39:47;;;;;;;34.25;30.50;;;9.50;99.90;;;;;;4993078;28;20029;-84
2023/12/17 11:42:13;;;;;;;37.30;33.25;;;9.40;99.90;;;;;;4999939;28;20488;-83
2023/12/17 11:44:50;;;;;;;40.08;33.17;;;9.30;99.90;;;;;;5014463;28;20094;-83
2023/12/17 11:47:17;;;;;;;38.13;32.35;;;9.30;99.90;;;;;;4998058;28;20157;-84
2023/12/17 11:49:43;;;;;;;36.65;32.55;;;9.30;99.90;;;;;;4994067;28;20060;-86
2023/12/17 11:52:11;;;;;;;40.58;35.30;;;9.30;99.90;;;;;;5014894;28;20033;-82
2023/12/17 11:54:37;;;;;;;38.83;34.10;;;9.30;99.90;;;;;;5001232;28;20044;-81
2023/12/17 11:57:03;;;;;;;39.65;33.25;;;9.30;99.90;;;;;;5003115;28;20025;-82
2023/12/17 11:59:33;;;;;;;39.60;34.17;;;9.30;99.90;;;;;;5010985;28;20505;-80
2023/12/17 12:02:00;;;;;;;38.00;33.90;;;9.40;99.90;;;;;;5026271;28;20036;-81
2023/12/17 12:04:26;;;;;;;36.63;32.67;;;9.40;99.90;;;;;;5009967;28;20037;-81
2023/12/17 12:06:54;;;;;;;35.35;31.63;;;9.40;99.90;;;;;;5023175;28;20714;-81
2023/12/17 12:09:20;;;;;;;36.72;32.05;;;9.40;99.90;;;;;;5019667;28;20044;-81
2023/12/17 12:11:46;;;;;;;33.92;30.30;;;9.50;99.90;;;;;;5013629;28;20049;-81
2023/12/17 12:14:12;;;;;;;34.00;30.40;;;9.60;99.90;;;;;;4989836;28;20634;-81
2023/12/17 12:16:44;;;;;;;31.50;27.98;;;9.50;99.90;;;;;;5012739;28;20041;-81
2023/12/17 12:19:10;;;;;;;32.92;29.38;;;9.50;99.90;;;;;;5022825;28;20368;-81
2023/12/17 12:21:35;;;;;;;33.83;29.92;;;9.40;99.90;;;;;;5016687;28;20116;-81
2023/12/17 12:24:03;;;;;;;33.70;30.15;;;9.40;99.90;;;;;;5010675;28;20045;-81
2023/12/17 12:26:34;;;;;;;33.30;29.70;;;9.40;99.90;;;;;;5016746;28;20041;-80
2023/12/17 12:29:06;;;;;;;34.60;30.35;;;9.40;99.90;;;;;;5004676;28;20068;-81
2023/12/17 12:31:32;;;;;;;30.88;27.55;;;9.50;99.90;;;;;;5023612;28;20484;-81
2023/12/17 12:34:04;;;;;;;30.85;27.65;;;9.50;99.90;;;;;;4991857;28;20496;-81